Terminal Aerodrome Forecast
Issued by NWS Tuscon, AZ

Home | Current Version | Previous Version | Text Only | Print | Product List | Glossary On
Versions: 1 2 3 4 5 6 7 8 9 10 11 12 13
606
FTUS45 KTWC 251721
TAFDUG
TAF
KDUG 251721Z 2518/2618 21004KT P6SM SCT120
     FM252200 08012G20KT P6SM BKN120
     FM260900 09020G30KT P6SM VCSH BKN060 BKN100
     FM261300 14026G35KT P6SM -SHRA BKN050 OVC100=

USA.gov is the U.S. government's official web portal to all federal, state and local government web resources and services.